Alford, United Kingdom
Current Conditions -  °F | °C
As of 7:20 PM on Saturday 25 Oct 2014 (Local Time) from EGPD Reporting Station
Scattered Clouds Scattered Clouds  
Wind Chill: 52°   Ceiling: Unl
Heat Index: 52°   Visibility: 6mi
Dew Point: 43°   Wind: 15mph
Humidity: 71%   Direction: 200°SSW
Pressure: 29.56"   Gusts: NA
Location:  57.23°N, 2.7°W
Report Text: EGPD 251820Z 20013KT 9999 SCT039 11/06 Q1001 NOSIG
Loading
Personal Weather Stations






























Interactive Weather Map
Tropical Storm Tracking
New forecast layout! Learn more

10-Day Weather Forecast

Advertisements
Track Severe Weather on mobile